createdAt,value
2018-07-28T00:00:41.040Z,83.40
2018-07-28T00:03:11.697Z,83.01
2018-07-28T00:05:42.413Z,83.16
2018-07-28T00:08:12.989Z,83.90
2018-07-28T00:10:43.191Z,84.68
2018-07-28T00:13:13.674Z,85.75
2018-07-28T00:15:43.981Z,85.72
2018-07-28T00:18:15.683Z,86.12
2018-07-28T00:20:46.228Z,86.35
2018-07-28T00:23:16.915Z,86.17
2018-07-28T00:25:52.248Z,86.89
2018-07-28T00:28:22.893Z,86.71
2018-07-28T00:30:53.575Z,86.80
2018-07-28T00:33:25.349Z,86.73
2018-07-28T00:35:56.478Z,86.37
2018-07-28T00:38:27.943Z,86.53
2018-07-28T00:40:58.530Z,85.80
2018-07-28T00:43:29.000Z,85.87
2018-07-28T00:45:59.594Z,85.26
2018-07-28T00:48:30.166Z,84.79
2018-07-28T00:51:00.623Z,84.98
2018-07-28T00:53:31.362Z,85.03
2018-07-28T00:56:01.873Z,85.13
2018-07-28T00:58:32.417Z,84.31
2018-07-28T01:01:02.842Z,84.15
2018-07-28T01:03:34.213Z,84.67
2018-07-28T01:06:05.299Z,85.63
2018-07-28T01:08:35.750Z,86.84
2018-07-28T01:11:06.402Z,87.30
2018-07-28T01:13:37.087Z,88.10
2018-07-28T01:16:07.653Z,88.40
2018-07-28T01:18:38.331Z,88.68
2018-07-28T01:21:10.516Z,89.03
2018-07-28T01:23:41.240Z,87.33
2018-07-28T01:26:11.831Z,87.06
2018-07-28T01:28:42.559Z,87.05
2018-07-28T01:31:13.435Z,86.73
2018-07-28T01:33:44.963Z,86.88
2018-07-28T01:36:15.462Z,86.71
2018-07-28T01:38:46.916Z,87.07
2018-07-28T01:41:17.421Z,87.19
2018-07-28T01:43:47.889Z,87.69
2018-07-28T01:46:18.376Z,87.73
2018-07-28T01:48:49.040Z,87.54
2018-07-28T01:51:20.165Z,86.67
2018-07-28T01:53:51.737Z,86.35
2018-07-28T01:56:22.291Z,87.43
2018-07-28T01:58:52.892Z,88.07
2018-07-28T02:01:23.515Z,88.08
2018-07-28T02:03:54.273Z,88.26
2018-07-28T02:06:24.900Z,87.58
2018-07-28T02:08:55.581Z,87.99
2018-07-28T02:11:26.742Z,88.77
2018-07-28T02:13:57.388Z,88.53
2018-07-28T02:16:28.057Z,89.15
2018-07-28T02:18:58.514Z,89.04
2018-07-28T02:21:28.969Z,89.18
2018-07-28T02:23:59.567Z,89.91
2018-07-28T02:26:30.217Z,90.37
2018-07-28T02:29:02.378Z,89.81
2018-07-28T02:31:33.758Z,89.37
2018-07-28T02:34:04.575Z,88.76
2018-07-28T02:36:35.140Z,88.41
2018-07-28T02:39:07.285Z,88.49
2018-07-28T02:41:37.757Z,88.94
2018-07-28T02:44:08.262Z,89.23
2018-07-28T02:46:39.682Z,89.00
2018-07-28T02:49:10.369Z,89.36
2018-07-28T02:51:40.906Z,89.72
2018-07-28T02:54:11.518Z,90.47
2018-07-28T02:56:42.056Z,90.63
2018-07-28T02:59:12.584Z,90.80
2018-07-28T03:01:42.954Z,91.30
2018-07-28T03:04:13.606Z,91.35
2018-07-28T03:06:44.627Z,92.03
2018-07-28T03:09:15.887Z,91.28
2018-07-28T03:11:46.370Z,91.02
2018-07-28T03:14:17.033Z,90.33
2018-07-28T03:16:47.566Z,90.87
2018-07-28T03:19:18.141Z,91.42
2018-07-28T03:21:48.701Z,91.70
2018-07-28T03:24:19.480Z,91.94
2018-07-28T03:26:50.635Z,92.60
2018-07-28T03:29:22.105Z,92.21
2018-07-28T03:31:52.754Z,92.07
2018-07-28T03:34:23.295Z,92.32
2018-07-28T03:36:53.258Z,92.08
2018-07-28T03:39:23.737Z,91.04
2018-07-28T03:41:54.303Z,90.33
2018-07-28T03:44:24.880Z,90.59
2018-07-28T03:46:56.028Z,90.68
2018-07-28T03:49:27.269Z,90.65
2018-07-28T03:51:57.745Z,90.79
2018-07-28T03:54:28.251Z,90.92
2018-07-28T03:56:58.727Z,89.32
2018-07-28T03:59:29.295Z,89.42
2018-07-28T04:02:00.182Z,90.21
2018-07-28T04:04:30.606Z,90.00
2018-07-28T04:07:02.031Z,90.29
2018-07-28T04:09:32.996Z,90.87
2018-07-28T04:12:03.436Z,91.01
2018-07-28T04:14:33.952Z,91.68
2018-07-28T04:17:04.452Z,92.39
2018-07-28T04:19:35.720Z,92.37
2018-07-28T04:22:06.257Z,92.93
2018-07-28T04:24:36.980Z,92.41
2018-07-28T04:27:08.338Z,92.65
2018-07-28T04:29:38.978Z,92.49
2018-07-28T04:32:09.667Z,91.83
2018-07-28T04:34:40.393Z,91.57
2018-07-28T04:37:11.043Z,90.88
2018-07-28T04:39:41.469Z,90.56
2018-07-28T04:42:12.654Z,90.80
2018-07-28T04:44:44.366Z,90.44
2018-07-28T04:47:16.074Z,90.50
2018-07-28T04:49:46.590Z,89.80
2018-07-28T04:52:17.407Z,89.55
2018-07-28T04:54:48.003Z,89.47
2018-07-28T04:57:18.534Z,89.08
2018-07-28T04:59:48.925Z,89.22
2018-07-28T05:02:19.630Z,88.83
2018-07-28T05:04:50.855Z,88.58
2018-07-28T05:07:21.922Z,88.26
2018-07-28T05:09:52.058Z,87.34
2018-07-28T05:12:22.538Z,87.53
2018-07-28T05:14:53.035Z,87.28
2018-07-28T05:17:23.602Z,86.82
2018-07-28T05:19:54.734Z,86.60
2018-07-28T05:22:27.493Z,86.93
2018-07-28T05:24:59.005Z,86.26
2018-07-28T05:27:30.010Z,85.71
2018-07-28T05:30:00.718Z,85.30
2018-07-28T05:32:31.155Z,84.30
2018-07-28T05:35:01.279Z,83.57
2018-07-28T05:37:32.049Z,83.68
2018-07-28T05:40:03.136Z,82.85
2018-07-28T05:42:34.132Z,82.88
2018-07-28T05:45:06.107Z,82.23
2018-07-28T05:47:37.175Z,80.50
2018-07-28T05:50:09.655Z,80.36
2018-07-28T05:52:40.482Z,79.73
2018-07-28T05:55:11.363Z,80.06
2018-07-28T05:57:41.877Z,80.14
2018-07-28T06:00:13.290Z,80.45
2018-07-28T06:02:47.189Z,78.24
2018-07-28T06:05:19.107Z,74.77
2018-07-28T06:07:50.354Z,72.68
2018-07-28T06:10:21.783Z,70.00
2018-07-28T06:12:52.742Z,67.92
2018-07-28T06:15:23.500Z,65.90
2018-07-28T06:17:54.796Z,64.49
2018-07-28T06:20:26.305Z,64.52
2018-07-28T06:22:57.222Z,64.12
2018-07-28T06:25:28.444Z,64.88
2018-07-28T06:28:00.125Z,72.57
2018-07-28T06:30:31.330Z,75.83
2018-07-28T06:33:02.215Z,72.27
2018-07-28T06:35:34.394Z,69.44
2018-07-28T06:38:05.503Z,68.68
2018-07-28T06:40:36.873Z,67.20
2018-07-28T06:43:09.737Z,62.21
2018-07-28T06:45:42.622Z,62.54
2018-07-28T06:48:15.083Z,66.43
2018-07-28T06:50:46.999Z,69.51
2018-07-28T06:53:18.524Z,62.23
2018-07-28T06:55:49.749Z,61.94
2018-07-28T06:58:20.915Z,67.68
2018-07-28T07:00:53.460Z,61.99
2018-07-28T07:03:24.998Z,60.15
2018-07-28T07:05:55.420Z,57.16
2018-07-28T07:08:27.437Z,55.46
2018-07-28T07:10:58.218Z,54.10
2018-07-28T07:13:30.224Z,63.78
2018-07-28T07:16:01.789Z,63.79
2018-07-28T07:18:34.560Z,62.52
2018-07-28T07:21:06.577Z,73.73
2018-07-28T07:23:37.411Z,75.54
2018-07-28T07:26:09.140Z,78.12
2018-07-28T07:28:39.970Z,79.01
2018-07-28T07:31:11.237Z,79.91
2018-07-28T07:33:43.561Z,75.62
2018-07-28T07:36:14.567Z,77.77
2018-07-28T07:38:46.123Z,74.00
2018-07-28T07:41:17.478Z,66.56
2018-07-28T07:43:48.206Z,60.17
2018-07-28T07:46:18.952Z,56.09
2018-07-28T07:48:50.191Z,61.04
2018-07-28T07:51:21.994Z,60.68
2018-07-28T07:53:53.258Z,65.77
2018-07-28T07:56:24.749Z,61.86
2018-07-28T07:58:55.966Z,59.64
2018-07-28T08:01:27.020Z,64.92
2018-07-28T08:03:57.645Z,67.96
2018-07-28T08:06:28.484Z,58.20
2018-07-28T08:08:59.384Z,60.63
2018-07-28T08:11:30.813Z,59.68
2018-07-28T08:14:02.209Z,51.55
2018-07-28T08:16:32.804Z,59.47
2018-07-28T08:19:03.180Z,56.90
2018-07-28T08:21:33.721Z,58.37
2018-07-28T08:24:04.461Z,56.11
2018-07-28T08:26:36.388Z,55.08
2018-07-28T08:29:08.773Z,49.97
2018-07-28T08:31:40.339Z,48.86
2018-07-28T08:34:11.543Z,45.46
2018-07-28T08:36:46.148Z,43.79
2018-07-28T08:39:19.274Z,44.29
2018-07-28T08:41:50.995Z,44.28
2018-07-28T08:44:22.607Z,43.73
2018-07-28T08:46:55.332Z,48.16
2018-07-28T08:49:25.862Z,47.46
2018-07-28T08:51:56.833Z,45.71
2018-07-28T08:54:27.370Z,45.31
2018-07-28T08:56:57.998Z,46.82
2018-07-28T08:59:28.638Z,47.96
2018-07-28T09:02:00.854Z,45.68
2018-07-28T09:04:33.435Z,43.39
2018-07-28T09:07:04.831Z,40.71
2018-07-28T09:09:35.759Z,37.39
2018-07-28T09:12:06.451Z,39.15
2018-07-28T09:14:38.062Z,35.70
2018-07-28T09:17:09.045Z,33.19
2018-07-28T09:19:39.781Z,33.08
2018-07-28T09:22:12.432Z,30.50
2018-07-28T09:24:43.991Z,28.83
2018-07-28T09:27:14.773Z,27.15
2018-07-28T09:29:45.923Z,28.57
2018-07-28T09:32:20.565Z,29.94
2018-07-28T09:34:55.400Z,33.52
2018-07-28T09:37:28.616Z,35.98
2018-07-28T09:40:00.841Z,36.29
2018-07-28T09:42:31.654Z,32.00
2018-07-28T09:45:02.890Z,31.45
2018-07-28T09:47:34.226Z,29.95
2018-07-28T09:50:16.364Z,28.99
2018-07-28T09:52:51.001Z,32.62
2018-07-28T09:55:22.664Z,33.77
2018-07-28T09:57:54.355Z,33.20
2018-07-28T10:00:32.165Z,30.97
2018-07-28T10:03:05.723Z,30.14
2018-07-28T10:05:37.737Z,28.96
2018-07-28T10:08:10.670Z,27.78
2018-07-28T10:10:43.622Z,27.94
2018-07-28T10:13:15.912Z,27.24
2018-07-28T10:15:49.141Z,27.57
2018-07-28T10:18:22.799Z,28.85
2018-07-28T10:20:57.032Z,26.82
2018-07-28T10:23:29.038Z,26.82
2018-07-28T10:26:02.129Z,26.85
2018-07-28T10:28:38.015Z,27.74
2018-07-28T10:31:12.989Z,26.97
2018-07-28T10:33:45.253Z,25.81
2018-07-28T10:36:17.509Z,24.77
2018-07-28T10:38:49.040Z,23.54
2018-07-28T10:41:20.278Z,24.09
2018-07-28T10:43:51.544Z,23.26
2018-07-28T10:46:25.589Z,23.71
2018-07-28T10:48:56.927Z,25.30
2018-07-28T10:51:27.824Z,25.59
2018-07-28T10:53:58.760Z,24.97
2018-07-28T10:56:29.860Z,26.69
2018-07-28T10:59:00.533Z,27.39
2018-07-28T11:01:32.545Z,30.15
2018-07-28T11:04:04.575Z,35.09
2018-07-28T11:06:35.263Z,36.13
2018-07-28T11:09:09.026Z,33.56
2018-07-28T11:11:39.846Z,31.41
2018-07-28T11:14:10.595Z,28.77
2018-07-28T11:16:41.460Z,27.33
2018-07-28T11:19:11.686Z,26.82
2018-07-28T11:21:44.420Z,30.85
2018-07-28T11:24:15.641Z,32.58
2018-07-28T11:26:46.543Z,32.98
2018-07-28T11:29:17.357Z,33.86
2018-07-28T11:32:05.034Z,35.13
2018-07-28T11:34:52.105Z,33.74
2018-07-28T11:38:38.063Z,35.45
2018-07-28T11:41:24.945Z,33.80
2018-07-28T11:45:16.981Z,32.49
2018-07-28T11:47:47.766Z,31.95
2018-07-28T11:50:20.152Z,30.66
2018-07-28T11:52:52.100Z,30.34
2018-07-28T11:55:23.251Z,30.65
2018-07-28T11:57:53.813Z,30.47
2018-07-28T12:00:25.444Z,30.77
2018-07-28T12:02:56.032Z,28.44
2018-07-28T12:05:27.728Z,26.65
2018-07-28T12:08:01.240Z,26.07
2018-07-28T12:10:32.655Z,25.82
2018-07-28T12:13:04.721Z,25.28
2018-07-28T12:15:36.398Z,24.58
2018-07-28T12:18:09.478Z,25.40
2018-07-28T12:20:40.721Z,24.91
2018-07-28T12:23:14.028Z,25.69
2018-07-28T12:25:50.213Z,26.11
2018-07-28T12:28:21.573Z,26.84
2018-07-28T12:30:52.388Z,26.99
2018-07-28T12:33:23.802Z,26.97
2018-07-28T12:35:55.037Z,26.48
2018-07-28T12:38:27.102Z,26.81
2018-07-28T12:40:59.000Z,27.49
2018-07-28T12:43:30.148Z,27.52
2018-07-28T12:46:00.819Z,27.35
2018-07-28T12:48:32.076Z,28.27
2018-07-28T12:51:03.101Z,28.16
2018-07-28T12:53:34.749Z,28.32
2018-07-28T12:56:06.665Z,28.74
2018-07-28T12:58:38.471Z,27.51
2018-07-28T13:01:09.536Z,27.27
2018-07-28T13:03:40.930Z,27.44
2018-07-28T13:06:11.901Z,26.14
2018-07-28T13:08:43.140Z,24.76
2018-07-28T13:11:16.648Z,25.20
2018-07-28T13:13:49.729Z,25.91
2018-07-28T13:16:27.101Z,24.90
2018-07-28T13:18:58.009Z,27.34
2018-07-28T13:21:32.290Z,26.94
2018-07-28T13:24:06.266Z,27.39
2018-07-28T13:26:37.693Z,28.21
2018-07-28T13:29:09.118Z,28.29
2018-07-28T13:31:42.135Z,28.42
2018-07-28T13:34:13.084Z,28.29
2018-07-28T13:36:45.520Z,26.79
2018-07-28T13:39:17.209Z,26.51
2018-07-28T13:41:48.121Z,26.59
2018-07-28T13:44:19.249Z,27.78
2018-07-28T13:46:51.673Z,26.76
2018-07-28T13:49:22.641Z,25.57
2018-07-28T13:51:53.371Z,26.56
2018-07-28T13:54:24.183Z,25.42
2018-07-28T13:56:55.280Z,26.33
2018-07-28T13:59:26.158Z,26.21
2018-07-28T14:01:57.731Z,27.06
2018-07-28T14:04:30.183Z,26.39
2018-07-28T14:07:01.258Z,26.60
2018-07-28T14:09:32.791Z,26.55
2018-07-28T14:12:03.965Z,26.24
2018-07-28T14:14:35.105Z,26.98
2018-07-28T14:17:06.013Z,27.43
2018-07-28T14:19:36.590Z,27.29
2018-07-28T14:22:09.020Z,27.46
2018-07-28T14:24:40.351Z,27.91
2018-07-28T14:27:11.591Z,28.61
2018-07-28T14:29:42.942Z,28.99
2018-07-28T14:32:13.944Z,28.61
2018-07-28T14:34:44.937Z,28.37
2018-07-28T14:37:16.515Z,27.98
2018-07-28T14:39:49.984Z,26.89
2018-07-28T14:42:21.392Z,27.00
2018-07-28T14:44:52.068Z,26.80
2018-07-28T14:47:23.565Z,26.51
2018-07-28T14:49:54.428Z,26.83
2018-07-28T14:52:28.000Z,26.74
2018-07-28T14:55:01.085Z,26.27
2018-07-28T14:57:34.074Z,26.18
2018-07-28T15:00:04.408Z,26.15
2018-07-28T15:02:35.334Z,27.34
2018-07-28T15:05:06.905Z,26.11
2018-07-28T15:07:39.017Z,26.79
2018-07-28T15:10:09.543Z,27.78
2018-07-28T15:12:40.980Z,26.77
2018-07-28T15:15:15.383Z,26.55
2018-07-28T15:17:46.350Z,27.25
2018-07-28T15:20:18.169Z,28.03
2018-07-28T15:22:49.021Z,27.80
2018-07-28T15:25:20.667Z,27.37
2018-07-28T15:27:50.967Z,27.85
2018-07-28T15:30:23.783Z,28.41
2018-07-28T15:32:55.162Z,28.52
2018-07-28T15:35:25.726Z,28.93
2018-07-28T15:37:55.991Z,28.60
2018-07-28T15:40:26.813Z,28.62
2018-07-28T15:42:57.665Z,28.91
2018-07-28T15:45:29.447Z,29.59
2018-07-28T15:48:00.802Z,31.51
2018-07-28T15:50:32.170Z,32.38
2018-07-28T15:53:03.747Z,30.38
2018-07-28T15:55:34.595Z,30.42
2018-07-28T15:58:05.143Z,29.39
2018-07-28T16:00:35.709Z,31.02
2018-07-28T16:03:06.354Z,31.36
2018-07-28T16:05:37.313Z,31.22
2018-07-28T16:08:08.837Z,30.51
2018-07-28T16:10:39.478Z,30.22
2018-07-28T16:13:09.973Z,29.65
2018-07-28T16:15:40.608Z,29.48
2018-07-28T16:18:11.374Z,29.44
2018-07-28T16:20:42.317Z,30.65
2018-07-28T16:23:13.231Z,30.70
2018-07-28T16:25:44.495Z,31.42
2018-07-28T16:28:16.247Z,31.34
2018-07-28T16:30:47.358Z,30.95
2018-07-28T16:33:18.505Z,30.91
2018-07-28T16:35:49.554Z,30.63
2018-07-28T16:38:20.370Z,30.28
2018-07-28T16:40:50.974Z,29.57
2018-07-28T16:43:21.589Z,29.27
2018-07-28T16:45:55.439Z,30.52
2018-07-28T16:48:27.921Z,30.79
2018-07-28T16:50:58.916Z,28.23
2018-07-28T16:53:29.854Z,29.65
2018-07-28T16:56:01.780Z,30.90
2018-07-28T16:58:31.991Z,31.25
2018-07-28T17:01:02.811Z,31.72
2018-07-28T17:03:35.707Z,32.26
2018-07-28T17:06:06.199Z,31.76
2018-07-28T17:08:37.347Z,31.49
2018-07-28T17:11:08.656Z,31.40
2018-07-28T17:13:39.753Z,31.57
2018-07-28T17:16:12.703Z,32.28
2018-07-28T17:18:44.467Z,32.73
2018-07-28T17:21:16.006Z,32.47
2018-07-28T17:23:46.986Z,33.24
2018-07-28T17:26:17.662Z,33.97
2018-07-28T17:28:48.708Z,34.20
2018-07-28T17:31:19.440Z,33.83
2018-07-28T17:33:50.299Z,34.67
2018-07-28T17:36:20.974Z,34.62
2018-07-28T17:38:53.970Z,34.22
2018-07-28T17:41:24.965Z,34.00
2018-07-28T17:43:56.575Z,34.92
2018-07-28T17:46:28.305Z,35.10
2018-07-28T17:48:59.250Z,35.20
2018-07-28T17:51:31.342Z,35.58
2018-07-28T17:54:02.178Z,34.97
2018-07-28T17:56:34.904Z,35.26
2018-07-28T17:59:07.149Z,36.09
2018-07-28T18:01:38.115Z,36.09
2018-07-28T18:04:08.854Z,36.21
2018-07-28T18:06:39.676Z,37.26
2018-07-28T18:09:13.066Z,37.41
2018-07-28T18:11:44.773Z,38.23
2018-07-28T18:14:18.094Z,38.81
2018-07-28T18:16:48.678Z,38.60
2018-07-28T18:19:19.498Z,39.44
2018-07-28T18:21:49.889Z,39.56
2018-07-28T18:24:20.746Z,39.35
2018-07-28T18:26:51.825Z,40.31
2018-07-28T18:29:22.444Z,40.63
2018-07-28T18:31:54.204Z,42.05
2018-07-28T18:34:24.888Z,43.42
2018-07-28T18:36:55.611Z,44.61
2018-07-28T18:39:26.330Z,45.87
2018-07-28T18:41:57.018Z,47.02
2018-07-28T18:44:28.530Z,46.85
2018-07-28T18:46:59.163Z,45.22
2018-07-28T18:49:30.732Z,46.46
2018-07-28T18:52:01.872Z,47.43
2018-07-28T18:54:33.183Z,48.22
2018-07-28T18:57:03.837Z,48.04
2018-07-28T18:59:34.574Z,48.36
2018-07-28T19:02:05.483Z,48.03
2018-07-28T19:04:36.647Z,48.37
2018-07-28T19:07:07.738Z,48.58
2018-07-28T19:09:44.531Z,48.91
2018-07-28T19:12:15.502Z,48.66
2018-07-28T19:14:46.508Z,48.89
2018-07-28T19:17:17.475Z,48.38
2018-07-28T19:19:48.268Z,49.03
2018-07-28T19:22:24.644Z,49.28
2018-07-28T19:24:56.051Z,48.50
2018-07-28T19:27:26.978Z,49.02
2018-07-28T19:29:58.082Z,51.00
2018-07-28T19:32:29.554Z,51.28
2018-07-28T19:35:00.319Z,51.98
2018-07-28T19:37:32.776Z,51.96
2018-07-28T19:40:04.511Z,52.31
2018-07-28T19:42:42.068Z,52.08
2018-07-28T19:45:12.986Z,52.42
2018-07-28T19:47:43.885Z,52.57
2018-07-28T19:50:14.622Z,52.49
2018-07-28T19:52:45.312Z,52.70
2018-07-28T19:55:17.280Z,51.63
2018-07-28T19:57:48.727Z,52.82
2018-07-28T20:00:19.490Z,55.77
2018-07-28T20:02:50.086Z,55.84
2018-07-28T20:05:20.768Z,54.88
2018-07-28T20:07:51.827Z,54.73
2018-07-28T20:10:22.625Z,53.83
2018-07-28T20:12:53.333Z,54.21
2018-07-28T20:15:25.008Z,54.17
2018-07-28T20:17:55.771Z,54.70
2018-07-28T20:20:26.694Z,55.91
2018-07-28T20:22:58.143Z,59.11
2018-07-28T20:25:29.115Z,59.16
2018-07-28T20:28:00.349Z,56.42
2018-07-28T20:30:31.221Z,56.11
2018-07-28T20:33:02.798Z,56.26
2018-07-28T20:35:34.044Z,55.23
2018-07-28T20:38:06.072Z,60.61
2018-07-28T20:40:39.430Z,60.81
2018-07-28T20:43:11.560Z,61.20
2018-07-28T20:45:42.258Z,59.27
2018-07-28T20:48:13.114Z,58.75
2018-07-28T20:50:44.544Z,63.12
2018-07-28T20:53:15.239Z,62.48
2018-07-28T20:55:46.389Z,60.92
2018-07-28T20:58:18.070Z,58.39
2018-07-28T21:00:49.490Z,58.93
2018-07-28T21:03:20.276Z,59.10
2018-07-28T21:05:51.731Z,59.36
2018-07-28T21:08:22.612Z,58.77
2018-07-28T21:10:53.534Z,63.28
2018-07-28T21:13:25.132Z,65.02
2018-07-28T21:15:56.115Z,66.74
2018-07-28T21:18:26.772Z,66.71
2018-07-28T21:20:59.698Z,65.43
2018-07-28T21:23:31.399Z,63.97
2018-07-28T21:26:02.199Z,62.03
2018-07-28T21:28:33.817Z,62.73
2018-07-28T21:31:04.797Z,63.44
2018-07-28T21:33:36.279Z,63.43
2018-07-28T21:36:08.002Z,63.06
2018-07-28T21:38:39.239Z,65.34
2018-07-28T21:41:10.191Z,66.00
2018-07-28T21:43:42.916Z,66.74
2018-07-28T21:46:14.476Z,67.37
2018-07-28T21:48:45.214Z,67.64
2018-07-28T21:51:15.854Z,68.17
2018-07-28T21:53:46.703Z,67.91
2018-07-28T21:56:21.305Z,67.76
2018-07-28T21:58:55.576Z,65.16
2018-07-28T22:01:27.025Z,65.60
2018-07-28T22:03:57.724Z,62.81
2018-07-28T22:06:28.394Z,62.43
2018-07-28T22:08:59.103Z,61.83
2018-07-28T22:11:30.006Z,62.74
2018-07-28T22:14:00.154Z,67.72
2018-07-28T22:16:31.265Z,68.24
2018-07-28T22:19:02.361Z,64.17
2018-07-28T22:21:33.435Z,64.12
2018-07-28T22:24:05.032Z,64.81
2018-07-28T22:26:36.006Z,64.35
2018-07-28T22:29:07.350Z,66.50
2018-07-28T22:31:38.959Z,63.72
2018-07-28T22:34:11.157Z,63.70
2018-07-28T22:36:42.558Z,63.47
2018-07-28T22:39:13.563Z,63.98
2018-07-28T22:41:44.652Z,64.41
2018-07-28T22:44:16.486Z,64.41
2018-07-28T22:46:47.949Z,66.71
2018-07-28T22:49:20.260Z,68.80
2018-07-28T22:51:51.062Z,70.81
2018-07-28T22:54:22.311Z,71.55
2018-07-28T22:56:53.498Z,71.80
2018-07-28T22:59:25.530Z,71.92
2018-07-28T23:01:56.892Z,72.93
2018-07-28T23:04:28.670Z,71.91
2018-07-28T23:07:00.324Z,71.80
2018-07-28T23:09:31.488Z,72.32
2018-07-28T23:12:02.886Z,71.79
2018-07-28T23:14:33.736Z,72.29
2018-07-28T23:17:04.702Z,72.52
2018-07-28T23:19:35.698Z,73.16
2018-07-28T23:22:06.193Z,71.66
2018-07-28T23:24:37.563Z,71.66
2018-07-28T23:27:09.082Z,73.48
2018-07-28T23:29:39.990Z,73.47
2018-07-28T23:32:10.785Z,74.53
2018-07-28T23:34:41.736Z,74.96
2018-07-28T23:37:12.150Z,73.94
2018-07-28T23:39:42.964Z,72.43
2018-07-28T23:42:13.596Z,70.47
2018-07-28T23:44:44.313Z,70.82
2018-07-28T23:47:15.134Z,70.03
2018-07-28T23:49:45.953Z,68.45
2018-07-28T23:52:17.536Z,66.69
2018-07-28T23:54:49.736Z,66.36
2018-07-28T23:57:20.513Z,66.87
2018-07-28T23:59:51.200Z,66.38
